Time;durP1;ratioP1;P1;durP2;ratioP2;P2;SDS_P1;SDS_P2;PMS_P1;PMS_P2;Temp;Humidity;BMP_temperature;BMP_pressure;BME280_temperature;BME280_humidity;BME280_pressure;Samples;Min_cycle;Max_cycle;Signal;HPM_P1;HPM_P2
2022/01/19 00:00:37;;;;;;;95.45;29.25;;;4.80;99.90;;;;;;5054605;28;20036;-75
2022/01/19 00:03:03;;;;;;;104.22;31.13;;;4.80;99.90;;;;;;5050918;28;20041;-75
2022/01/19 00:05:28;;;;;;;97.28;31.38;;;4.80;99.90;;;;;;5035466;28;20048;-75
2022/01/19 00:07:54;;;;;;;93.40;30.63;;;4.90;99.90;;;;;;5035603;28;20053;-72
2022/01/19 00:10:27;;;;;;;109.03;32.22;;;4.80;99.90;;;;;;5054001;28;20063;-72
2022/01/19 00:12:54;;;;;;;105.25;32.40;;;4.90;99.90;;;;;;5055129;28;20062;-71
2022/01/19 00:15:21;;;;;;;106.45;31.58;;;4.90;99.90;;;;;;5054868;28;20045;-72
2022/01/19 00:17:47;;;;;;;95.03;32.13;;;4.90;99.90;;;;;;5050830;28;20454;-72
2022/01/19 00:20:12;;;;;;;105.75;32.50;;;4.90;99.90;;;;;;5035288;28;20475;-72
2022/01/19 00:22:38;;;;;;;99.10;32.00;;;4.90;99.90;;;;;;5038380;28;20045;-74
2022/01/19 00:25:07;;;;;;;96.38;31.73;;;4.90;99.90;;;;;;5041466;28;20052;-73
2022/01/19 00:27:33;;;;;;;87.70;30.08;;;4.90;99.90;;;;;;5056095;28;20037;-72
2022/01/19 00:29:59;;;;;;;100.80;31.63;;;4.90;99.90;;;;;;5054773;28;20107;-71
2022/01/19 00:32:25;;;;;;;95.93;30.85;;;4.90;99.90;;;;;;5041451;28;20049;-71
2022/01/19 00:34:51;;;;;;;103.22;30.63;;;5.00;99.90;;;;;;5041543;28;20467;-74
2022/01/19 00:37:17;;;;;;;86.65;31.88;;;4.90;99.90;;;;;;5058638;28;20081;-72
2022/01/19 00:39:43;;;;;;;93.53;31.90;;;4.90;99.90;;;;;;5041661;28;20078;-72
2022/01/19 00:42:09;;;;;;;82.93;28.67;;;4.90;99.90;;;;;;5056965;28;20037;-72
2022/01/19 00:44:34;;;;;;;95.68;29.92;;;4.90;99.90;;;;;;5057625;28;20036;-72
2022/01/19 00:47:00;;;;;;;98.45;29.60;;;4.80;99.90;;;;;;5059010;28;20105;-72
2022/01/19 00:49:26;;;;;;;79.60;27.90;;;4.90;99.90;;;;;;5058131;28;20093;-71
2022/01/19 00:51:52;;;;;;;80.90;29.13;;;4.80;99.90;;;;;;5057783;28;20044;-72
2022/01/19 00:54:17;;;;;;;85.53;28.25;;;4.80;99.90;;;;;;5058413;28;20036;-72
2022/01/19 00:56:43;;;;;;;74.85;28.02;;;4.80;99.90;;;;;;5057491;28;20106;-73
2022/01/19 00:59:09;;;;;;;77.22;27.17;;;4.70;99.90;;;;;;5041450;28;20044;-73
2022/01/19 01:01:34;;;;;;;84.65;28.25;;;4.70;99.90;;;;;;5058085;28;20540;-72
2022/01/19 01:04:00;;;;;;;76.38;26.23;;;4.60;99.90;;;;;;5057605;28;20147;-72
2022/01/19 01:06:26;;;;;;;74.25;27.52;;;4.50;99.90;;;;;;5057817;28;20074;-72
2022/01/19 01:08:51;;;;;;;75.00;27.73;;;4.50;99.90;;;;;;5040655;28;20040;-72
2022/01/19 01:11:17;;;;;;;73.53;25.95;;;4.40;99.90;;;;;;5029903;28;20045;-72
2022/01/19 01:18:58;;;;;;;71.28;26.17;;;4.20;99.90;;;;;;5058087;28;20098;-72
2022/01/19 01:21:24;;;;;;;73.05;26.35;;;4.10;99.90;;;;;;5057509;28;20036;-72
2022/01/19 01:23:49;;;;;;;68.32;24.95;;;4.10;99.90;;;;;;5053476;28;20044;-73
2022/01/19 01:26:15;;;;;;;76.20;25.17;;;4.10;99.90;;;;;;5037609;28;20045;-73
2022/01/19 01:28:41;;;;;;;72.15;25.38;;;4.00;99.90;;;;;;5057149;28;20442;-72
2022/01/19 01:31:09;;;;;;;69.22;25.27;;;4.00;99.90;;;;;;5057367;28;20505;-72
2022/01/19 01:33:37;;;;;;;61.88;24.63;;;3.90;99.90;;;;;;5040216;28;20044;-74
2022/01/19 01:36:03;;;;;;;58.17;22.23;;;3.80;99.90;;;;;;5057539;28;20036;-73
2022/01/19 01:38:29;;;;;;;81.43;24.45;;;3.80;99.90;;;;;;5057057;28;20047;-75
2022/01/19 01:40:55;;;;;;;66.22;23.30;;;3.70;99.90;;;;;;5041039;28;20375;-72
2022/01/19 01:43:21;;;;;;;82.45;25.80;;;3.60;99.90;;;;;;5054205;28;20495;-74
2022/01/19 01:45:53;;;;;;;83.45;24.80;;;3.60;99.90;;;;;;5056329;28;20043;-72
2022/01/19 01:48:22;;;;;;;75.45;24.65;;;3.60;99.90;;;;;;5057120;28;20093;-72
2022/01/19 01:53:34;;;;;;;68.68;24.33;;;3.60;99.90;;;;;;5056938;28;20441;-72
2022/01/19 01:56:10;;;;;;;67.25;24.70;;;3.60;99.90;;;;;;5057180;28;20052;-72
2022/01/19 01:58:43;;;;;;;62.22;23.00;;;3.50;99.90;;;;;;5056662;28;20040;-73
2022/01/19 02:01:09;;;;;;;59.72;21.90;;;3.50;99.90;;;;;;5040429;28;20040;-72
2022/01/19 02:03:38;;;;;;;67.53;24.30;;;3.40;99.90;;;;;;5033517;28;20513;-73
2022/01/19 02:09:08;;;;;;;60.13;22.88;;;3.30;99.90;;;;;;5017461;28;20053;-72
2022/01/19 02:23:05;;;;;;;67.05;24.85;;;3.30;99.90;;;;;;5035712;28;20045;-72
2022/01/19 02:25:37;;;;;;;66.70;23.35;;;3.30;99.90;;;;;;5026659;28;20054;-74
2022/01/19 02:41:40;;;;;;;447.88;38.13;;;3.40;99.90;;;;;;5019080;28;20037;-72
2022/01/19 02:44:09;;;;;;;260.98;36.67;;;3.40;99.90;;;;;;5035972;28;20041;-74
2022/01/19 02:49:19;;;;;;;532.28;40.33;;;3.40;99.90;;;;;;5032483;28;20055;-71
2022/01/19 02:51:47;;;;;;;313.27;35.05;;;3.40;99.90;;;;;;5016113;28;20119;-74
2022/01/19 02:54:16;;;;;;;341.95;30.48;;;3.30;99.90;;;;;;5016339;28;20475;-75
2022/01/19 02:56:46;;;;;;;381.48;33.95;;;3.30;99.90;;;;;;5003589;28;20044;-72
2022/01/19 02:59:24;;;;;;;149.35;27.13;;;3.30;99.90;;;;;;5035923;28;20483;-71
2022/01/19 03:10:04;;;;;;;400.27;33.97;;;3.30;99.90;;;;;;5055627;28;20040;-73
2022/01/19 03:12:30;;;;;;;212.68;30.98;;;3.20;99.90;;;;;;5038022;28;20080;-72
2022/01/19 03:14:56;;;;;;;574.85;44.38;;;3.20;99.90;;;;;;5056436;28;20439;-73
2022/01/19 03:17:22;;;;;;;226.05;31.10;;;3.20;99.90;;;;;;5055920;28;20041;-71
2022/01/19 03:19:48;;;;;;;318.55;32.97;;;3.20;99.90;;;;;;5052027;28;20066;-74
2022/01/19 03:22:14;;;;;;;285.00;32.55;;;3.20;99.90;;;;;;5019364;28;20364;-72
2022/01/19 03:24:48;;;;;;;325.15;34.78;;;3.20;99.90;;;;;;5018941;28;20083;-72
2022/01/19 03:27:14;;;;;;;207.88;31.58;;;3.20;99.90;;;;;;5040661;28;20041;-72
2022/01/19 03:29:39;;;;;;;247.52;33.05;;;3.10;99.90;;;;;;5030601;28;20051;-72
2022/01/19 03:32:05;;;;;;;111.35;27.48;;;3.10;99.90;;;;;;5055556;28;20048;-71
2022/01/19 03:34:31;;;;;;;195.50;31.45;;;3.10;99.90;;;;;;5055402;28;20052;-72
2022/01/19 03:36:57;;;;;;;544.50;45.40;;;3.10;99.90;;;;;;5055276;28;20040;-72
2022/01/19 03:39:22;;;;;;;297.55;34.80;;;3.10;99.90;;;;;;5054210;28;20122;-75
2022/01/19 03:41:48;;;;;;;180.77;32.35;;;3.10;99.90;;;;;;5037959;28;20063;-73
2022/01/19 03:44:14;;;;;;;339.65;36.10;;;3.00;99.90;;;;;;5054539;28;20066;-74
2022/01/19 03:46:53;;;;;;;265.00;34.30;;;3.00;99.90;;;;;;5038607;28;20082;-72
2022/01/19 03:49:24;;;;;;;266.02;36.92;;;3.10;99.90;;;;;;5055371;28;20044;-72
2022/01/19 03:51:51;;;;;;;424.50;40.85;;;3.00;99.90;;;;;;5054808;28;20044;-72
2022/01/19 03:54:17;;;;;;;132.13;28.98;;;3.00;99.90;;;;;;5038113;28;20123;-74
2022/01/19 03:56:43;;;;;;;251.57;36.47;;;3.10;99.90;;;;;;5056467;28;20394;-72
2022/01/19 03:59:09;;;;;;;76.38;27.55;;;3.00;99.90;;;;;;5058825;28;20486;-72
2022/01/19 04:01:34;;;;;;;165.02;34.08;;;3.10;99.90;;;;;;5058996;28;20397;-72
2022/01/19 04:04:48;;;;;;;266.50;32.58;;;3.00;99.90;;;;;;5033059;28;20041;-72
2022/01/19 04:09:24;;;;;;;169.90;28.17;;;3.00;99.90;;;;;;5039112;28;20048;-72
2022/01/19 04:11:51;;;;;;;139.88;26.23;;;2.90;99.90;;;;;;5038212;28;20051;-72
2022/01/19 04:14:27;;;;;;;83.45;24.88;;;2.90;99.90;;;;;;5022403;28;20033;-72
2022/01/19 04:17:05;;;;;;;100.38;24.17;;;2.90;99.90;;;;;;5038935;28;20051;-73
2022/01/19 04:19:42;;;;;;;146.25;24.77;;;2.80;99.90;;;;;;5023113;28;20372;-74
2022/01/19 04:22:13;;;;;;;128.48;24.52;;;2.70;99.90;;;;;;5039266;28;20060;-72
2022/01/19 04:24:39;;;;;;;59.53;22.25;;;2.60;99.90;;;;;;5021513;28;20158;-72
2022/01/19 04:29:48;;;;;;;171.52;27.27;;;2.60;99.90;;;;;;5037983;28;20044;-75
2022/01/19 04:32:19;;;;;;;131.55;24.75;;;2.50;99.90;;;;;;5038894;28;20052;-72
2022/01/19 04:34:47;;;;;;;214.73;29.00;;;2.50;99.90;;;;;;5039187;28;20043;-72
2022/01/19 05:04:19;;;;;;;168.88;32.13;;;2.40;99.90;;;;;;5047685;28;20054;-72
2022/01/19 05:06:50;;;;;;;95.15;28.25;;;2.40;99.90;;;;;;5057905;28;20084;-72
2022/01/19 05:09:54;;;;;;;160.38;32.15;;;2.40;99.90;;;;;;5056792;28;20048;-73
2022/01/19 05:14:55;;;;;;;360.35;38.90;;;2.30;99.90;;;;;;5057402;28;20044;-72
2022/01/19 05:17:20;;;;;;;164.05;33.58;;;2.20;99.90;;;;;;5031284;28;20049;-75
2022/01/19 05:19:46;;;;;;;224.20;35.60;;;2.20;99.90;;;;;;5040660;28;20394;-71
2022/01/19 05:22:12;;;;;;;201.10;34.40;;;2.20;99.90;;;;;;5041119;28;20463;-72
2022/01/19 05:24:38;;;;;;;439.90;39.85;;;2.20;99.90;;;;;;5040511;28;20037;-72
2022/01/19 05:27:03;;;;;;;137.75;29.40;;;2.20;99.90;;;;;;5040931;28;20040;-75
2022/01/19 05:29:29;;;;;;;159.10;31.90;;;2.10;99.90;;;;;;5057109;28;20033;-73
2022/01/19 05:31:55;;;;;;;295.50;38.22;;;2.10;99.90;;;;;;5040829;28;20501;-73
2022/01/19 05:34:20;;;;;;;297.33;36.60;;;2.10;99.90;;;;;;5040527;28;20506;-72
2022/01/19 05:36:46;;;;;;;387.65;39.50;;;2.10;99.90;;;;;;5041603;28;20041;-72
2022/01/19 05:39:11;;;;;;;237.90;32.95;;;2.00;99.90;;;;;;5040992;28;20045;-74
2022/01/19 05:41:37;;;;;;;336.80;38.03;;;2.00;99.90;;;;;;5053073;28;20045;-72
2022/01/19 05:44:03;;;;;;;383.25;39.90;;;2.00;99.90;;;;;;5037294;28;20128;-72
2022/01/19 05:46:28;;;;;;;75.50;26.75;;;2.00;99.90;;;;;;5057004;28;20047;-73
2022/01/19 05:48:54;;;;;;;528.35;45.40;;;2.00;99.90;;;;;;5040353;28;20040;-72
2022/01/19 05:51:20;;;;;;;574.25;49.97;;;2.00;99.90;;;;;;5040674;28;20036;-73
2022/01/19 05:53:45;;;;;;;250.68;35.75;;;1.90;99.90;;;;;;5040756;28;20048;-75
2022/01/19 05:56:11;;;;;;;136.82;31.05;;;2.00;99.90;;;;;;5053415;28;20408;-72
2022/01/19 05:58:37;;;;;;;88.60;30.45;;;1.90;99.90;;;;;;5035717;28;20040;-71
2022/01/19 06:01:02;;;;;;;263.10;35.08;;;1.90;99.90;;;;;;5040018;28;20120;-72
2022/01/19 06:03:28;;;;;;;399.77;39.65;;;2.00;99.90;;;;;;5051122;28;20147;-74
2022/01/19 06:05:54;;;;;;;494.08;46.38;;;2.00;99.90;;;;;;5021325;28;20475;-73
2022/01/19 06:10:48;;;;;;;154.68;33.50;;;2.00;99.90;;;;;;5032931;28;20530;-72
2022/01/19 06:13:18;;;;;;;175.95;34.70;;;1.90;99.90;;;;;;5027767;28;20041;-72
2022/01/19 06:15:45;;;;;;;264.50;37.63;;;2.00;99.90;;;;;;5027211;28;20104;-72
2022/01/19 06:18:11;;;;;;;230.55;37.63;;;2.00;99.90;;;;;;5020843;28;20586;-74
2022/01/19 06:20:38;;;;;;;177.50;35.92;;;2.00;99.90;;;;;;5032082;28;20427;-75
2022/01/19 06:23:04;;;;;;;151.85;33.63;;;1.90;99.90;;;;;;5016770;28;20128;-72
2022/01/19 06:25:30;;;;;;;99.88;31.83;;;2.00;99.90;;;;;;5000559;28;20480;-72
2022/01/19 06:27:56;;;;;;;118.95;33.13;;;2.00;99.90;;;;;;5016748;28;20049;-73
2022/01/19 06:30:22;;;;;;;112.95;32.70;;;2.00;99.90;;;;;;5010424;28;20454;-72
2022/01/19 06:32:48;;;;;;;113.70;33.72;;;2.00;99.90;;;;;;5033026;28;20056;-73
2022/01/19 06:35:14;;;;;;;104.75;33.35;;;2.10;99.90;;;;;;4992065;28;20058;-72
2022/01/19 06:37:39;;;;;;;94.22;32.75;;;2.10;99.90;;;;;;4992881;28;20053;-72
2022/01/19 06:40:06;;;;;;;105.07;33.72;;;2.20;99.90;;;;;;4976295;28;20050;-73
2022/01/19 06:42:32;;;;;;;91.00;31.67;;;2.20;99.90;;;;;;4976408;28;20049;-75
2022/01/19 06:44:58;;;;;;;94.30;31.85;;;2.20;99.90;;;;;;4960304;28;20046;-72
2022/01/19 06:47:24;;;;;;;86.47;32.75;;;2.30;99.90;;;;;;4991537;28;20129;-75
2022/01/19 06:49:49;;;;;;;90.40;31.60;;;2.30;99.90;;;;;;4947212;28;20056;-72
2022/01/19 06:52:15;;;;;;;86.78;31.45;;;2.30;99.90;;;;;;4976417;28;20038;-72
2022/01/19 06:54:41;;;;;;;85.28;31.83;;;2.40;99.90;;;;;;4975518;28;20058;-72
2022/01/19 06:57:07;;;;;;;80.70;30.50;;;2.30;99.90;;;;;;4975465;28;20113;-72
2022/01/19 06:59:32;;;;;;;80.55;31.70;;;2.40;99.90;;;;;;4974831;28;20046;-74
2022/01/19 07:01:58;;;;;;;83.47;31.90;;;2.40;99.90;;;;;;4975390;28;20061;-72
2022/01/19 07:04:24;;;;;;;76.00;32.47;;;2.40;99.90;;;;;;5003663;28;20046;-72
2022/01/19 07:06:50;;;;;;;85.78;31.52;;;2.40;99.90;;;;;;5042669;28;20564;-72
2022/01/19 07:09:17;;;;;;;87.20;32.83;;;2.40;99.90;;;;;;5036456;28;20079;-74
2022/01/19 07:11:43;;;;;;;78.63;32.90;;;2.40;99.90;;;;;;5037364;28;20123;-72
2022/01/19 07:14:12;;;;;;;77.95;32.83;;;2.50;99.90;;;;;;5035540;28;20095;-72
2022/01/19 07:16:38;;;;;;;83.82;34.28;;;2.50;99.90;;;;;;5035474;28;20506;-73
2022/01/19 07:19:04;;;;;;;84.05;35.53;;;2.50;99.90;;;;;;5036063;28;20103;-72
2022/01/19 07:21:30;;;;;;;85.72;35.33;;;2.50;99.90;;;;;;5035506;28;20437;-75
2022/01/19 07:23:55;;;;;;;85.78;35.45;;;2.50;99.90;;;;;;5035278;28;20039;-73
2022/01/19 07:26:21;;;;;;;84.15;37.58;;;2.50;99.90;;;;;;5035535;28;20059;-72
2022/01/19 07:28:47;;;;;;;87.90;36.95;;;2.60;99.90;;;;;;5035479;28;20048;-73
2022/01/19 07:31:13;;;;;;;79.97;35.05;;;2.60;99.90;;;;;;5038244;28;20048;-73
2022/01/19 07:33:38;;;;;;;77.65;35.33;;;2.60;99.90;;;;;;5042648;28;20052;-72
2022/01/19 07:36:04;;;;;;;82.63;35.22;;;2.60;99.90;;;;;;5026195;28;20045;-73
2022/01/19 07:38:30;;;;;;;87.45;37.40;;;2.60;99.90;;;;;;5028116;28;20386;-72
2022/01/19 07:40:55;;;;;;;79.03;34.15;;;2.60;99.90;;;;;;5062015;28;20043;-73
2022/01/19 07:43:21;;;;;;;72.05;35.55;;;2.60;99.90;;;;;;5044817;28;20028;-73
2022/01/19 07:45:47;;;;;;;82.43;34.58;;;2.60;99.90;;;;;;5061683;28;20048;-72
2022/01/19 07:48:13;;;;;;;74.95;35.53;;;2.60;99.90;;;;;;5061475;28;20044;-73
2022/01/19 07:50:39;;;;;;;80.60;35.20;;;2.60;99.90;;;;;;5045014;28;20481;-73
2022/01/19 07:53:05;;;;;;;77.03;35.65;;;2.60;99.90;;;;;;5044823;28;20046;-73
2022/01/19 07:55:31;;;;;;;79.18;37.25;;;2.60;99.90;;;;;;5061959;28;20487;-73
2022/01/19 07:57:57;;;;;;;78.00;35.22;;;2.60;99.90;;;;;;5044559;28;20067;-75
2022/01/19 08:00:23;;;;;;;73.45;35.05;;;2.70;99.90;;;;;;5044240;28;20141;-72
2022/01/19 08:02:51;;;;;;;78.05;36.25;;;2.70;99.90;;;;;;5045248;28;20054;-73
2022/01/19 08:05:17;;;;;;;78.38;38.10;;;2.70;99.90;;;;;;5043066;28;20506;-72
2022/01/19 08:07:43;;;;;;;77.78;38.83;;;2.70;99.90;;;;;;5061864;28;20083;-74
2022/01/19 08:10:10;;;;;;;80.85;38.10;;;2.70;99.90;;;;;;5062033;28;20101;-73
2022/01/19 08:12:36;;;;;;;80.40;38.30;;;2.70;99.90;;;;;;5045016;28;20601;-74
2022/01/19 08:15:02;;;;;;;81.47;39.03;;;2.80;99.90;;;;;;5060789;28;20453;-73
2022/01/19 08:17:28;;;;;;;75.05;38.70;;;2.80;99.90;;;;;;5061806;28;20526;-72
2022/01/19 08:19:55;;;;;;;76.50;38.70;;;2.80;99.90;;;;;;5061912;28;20127;-72
2022/01/19 08:22:23;;;;;;;77.10;38.95;;;2.80;99.90;;;;;;5061906;28;20040;-74
2022/01/19 08:24:48;;;;;;;75.65;39.72;;;2.80;99.90;;;;;;5044686;28;20039;-72
2022/01/19 08:27:14;;;;;;;71.13;38.92;;;2.90;99.90;;;;;;5061534;28;20041;-72
2022/01/19 08:29:40;;;;;;;75.88;40.75;;;2.90;99.90;;;;;;5060655;28;20055;-72
2022/01/19 08:32:06;;;;;;;76.75;40.55;;;2.90;99.90;;;;;;5045765;28;20036;-73
2022/01/19 08:34:33;;;;;;;70.95;38.65;;;3.00;99.90;;;;;;5045527;28;20033;-74
2022/01/19 08:36:59;;;;;;;72.10;40.70;;;3.00;99.90;;;;;;5061442;28;20119;-73
2022/01/19 08:39:25;;;;;;;71.22;38.20;;;3.00;99.90;;;;;;5060793;28;20036;-73
2022/01/19 08:41:52;;;;;;;78.65;40.72;;;3.00;99.90;;;;;;5060965;28;20059;-74
2022/01/19 08:44:18;;;;;;;75.72;40.17;;;3.10;99.90;;;;;;5041313;28;20119;-73
2022/01/19 08:46:44;;;;;;;76.45;40.80;;;3.10;99.90;;;;;;5058339;28;20136;-73
2022/01/19 08:49:10;;;;;;;75.85;40.38;;;3.10;99.90;;;;;;5041899;28;20037;-73
2022/01/19 08:51:36;;;;;;;75.05;40.17;;;3.10;99.90;;;;;;5057904;28;20501;-72
2022/01/19 08:54:03;;;;;;;80.50;42.17;;;3.00;99.90;;;;;;5041991;28;20098;-73
2022/01/19 08:56:29;;;;;;;85.93;42.28;;;3.10;99.90;;;;;;5041246;28;20090;-73
2022/01/19 08:58:55;;;;;;;85.30;42.55;;;3.10;99.90;;;;;;5057854;28;20491;-73
2022/01/19 09:01:21;;;;;;;78.65;41.25;;;3.10;99.90;;;;;;5058379;28;20040;-73
2022/01/19 09:03:47;;;;;;;77.47;40.42;;;3.10;99.90;;;;;;5033530;28;20099;-74
2022/01/19 09:06:13;;;;;;;84.28;43.28;;;3.10;99.90;;;;;;5037587;28;20080;-75
2022/01/19 09:08:38;;;;;;;74.68;39.63;;;3.10;99.90;;;;;;5037887;28;20110;-72
2022/01/19 09:11:06;;;;;;;87.30;42.00;;;3.20;99.90;;;;;;5037879;28;20045;-73
2022/01/19 09:13:32;;;;;;;79.63;42.38;;;3.20;99.90;;;;;;5037605;28;20488;-73
2022/01/19 09:15:58;;;;;;;83.68;41.15;;;3.20;99.90;;;;;;5037958;28;20036;-75
2022/01/19 09:18:24;;;;;;;84.53;41.78;;;3.30;99.90;;;;;;5021296;28;20094;-73
2022/01/19 09:20:50;;;;;;;86.93;42.85;;;3.20;99.90;;;;;;5037089;28;20041;-72
2022/01/19 09:23:16;;;;;;;80.32;40.47;;;3.30;99.90;;;;;;5037560;28;20044;-74
2022/01/19 09:25:42;;;;;;;85.50;41.40;;;3.30;99.90;;;;;;5037537;28;20044;-74
2022/01/19 09:28:08;;;;;;;87.40;42.95;;;3.30;99.90;;;;;;5037334;28;20056;-73
2022/01/19 09:30:35;;;;;;;83.93;41.13;;;3.30;99.90;;;;;;5037761;28;20131;-72
2022/01/19 09:33:09;;;;;;;88.47;42.50;;;3.30;99.90;;;;;;5038159;28;20049;-73
2022/01/19 09:35:53;;;;;;;81.32;41.65;;;3.30;99.90;;;;;;5037807;28;20083;-74
2022/01/19 09:38:21;;;;;;;84.43;42.35;;;3.40;99.90;;;;;;5020395;28;20167;-73
2022/01/19 09:40:47;;;;;;;91.78;44.60;;;3.40;99.90;;;;;;5037783;28;20098;-72
2022/01/19 09:43:14;;;;;;;83.18;41.88;;;3.40;99.90;;;;;;5037509;28;20055;-74
2022/01/19 09:45:40;;;;;;;89.97;43.67;;;3.40;99.90;;;;;;5037884;28;20037;-73
2022/01/19 09:48:07;;;;;;;95.63;43.53;;;3.40;99.90;;;;;;5037316;28;20048;-73
2022/01/19 09:50:34;;;;;;;97.18;44.72;;;3.40;99.90;;;;;;5019828;28;20431;-73
2022/01/19 09:53:04;;;;;;;95.35;44.53;;;3.40;99.90;;;;;;5020171;28;20043;-73
2022/01/19 09:55:30;;;;;;;96.20;44.72;;;3.50;99.90;;;;;;5036206;28;20048;-72
2022/01/19 09:57:55;;;;;;;98.25;45.45;;;3.50;99.90;;;;;;5020458;28;20040;-74
2022/01/19 10:00:21;;;;;;;95.78;45.30;;;3.50;99.90;;;;;;5036395;28;20036;-73
2022/01/19 10:03:12;;;;;;;96.88;44.40;;;3.50;99.90;;;;;;5037125;28;20072;-73
2022/01/19 10:06:03;;;;;;;93.20;45.15;;;3.50;99.90;;;;;;5052871;28;20114;-74
2022/01/19 10:08:54;;;;;;;99.57;45.78;;;3.50;99.90;;;;;;5024365;28;20048;-73
2022/01/19 10:17:00;;;;;;;;;;;3.60;99.90;;;;;;5054262;28;20135;-72
2022/01/19 10:19:51;;;;;;;109.63;46.55;;;3.60;99.90;;;;;;5053370;28;19916;-73
2022/01/19 10:22:17;;;;;;;106.78;46.75;;;3.60;99.90;;;;;;5051908;28;20044;-73
2022/01/19 10:24:46;;;;;;;109.53;49.15;;;3.60;99.90;;;;;;5053217;28;20371;-72
2022/01/19 10:27:18;;;;;;;109.25;49.40;;;3.60;99.90;;;;;;5036879;28;20131;-72
2022/01/19 10:29:44;;;;;;;110.10;49.05;;;3.60;99.90;;;;;;5053139;28;20041;-74
2022/01/19 10:32:10;;;;;;;108.07;47.90;;;3.70;99.90;;;;;;5052717;28;20383;-73
2022/01/19 10:34:36;;;;;;;114.13;50.97;;;3.70;99.90;;;;;;5035978;28;20482;-73
2022/01/19 10:37:03;;;;;;;102.95;47.78;;;3.70;99.90;;;;;;5035244;28;20049;-73
2022/01/19 10:39:46;;;;;;;119.25;51.50;;;3.70;99.90;;;;;;5053616;28;20056;-73
2022/01/19 10:42:17;;;;;;;118.35;49.78;;;3.70;99.90;;;;;;5053297;28;20041;-73
2022/01/19 10:44:53;;;;;;;115.78;49.42;;;3.80;99.90;;;;;;5035963;28;20130;-73
2022/01/19 10:47:38;;;;;;;123.18;51.67;;;3.80;99.90;;;;;;5035163;28;20514;-73
2022/01/19 10:50:04;;;;;;;124.20;52.40;;;3.80;99.90;;;;;;5052922;28;20040;-74
2022/01/19 10:52:39;;;;;;;120.55;50.50;;;3.80;99.90;;;;;;5051919;28;20037;-73
2022/01/19 10:55:09;;;;;;;127.70;53.67;;;3.80;99.90;;;;;;5035981;28;20475;-73
2022/01/19 10:57:38;;;;;;;132.45;53.45;;;3.80;99.90;;;;;;5035446;28;20055;-73
2022/01/19 11:00:18;;;;;;;133.57;55.95;;;3.80;99.90;;;;;;5052357;28;20037;-73
2022/01/19 11:02:46;;;;;;;130.27;53.53;;;3.80;99.90;;;;;;5052351;28;20055;-73
2022/01/19 11:05:12;;;;;;;140.40;54.15;;;3.90;99.90;;;;;;5038389;28;20483;-73
2022/01/19 11:07:38;;;;;;;142.20;53.72;;;3.90;99.90;;;;;;5055192;28;20498;-73
2022/01/19 11:10:10;;;;;;;136.93;55.30;;;3.90;99.90;;;;;;5038896;28;20036;-74
2022/01/19 11:12:45;;;;;;;154.90;56.83;;;3.90;99.90;;;;;;5056081;28;20186;-73
2022/01/19 11:15:13;;;;;;;136.80;52.53;;;3.90;99.90;;;;;;5039102;28;20036;-73
2022/01/19 11:17:40;;;;;;;142.23;55.75;;;4.00;99.90;;;;;;5039089;28;20055;-72
2022/01/19 11:20:12;;;;;;;142.15;54.28;;;4.00;99.90;;;;;;5051827;28;20110;-72
2022/01/19 11:22:50;;;;;;;145.77;55.63;;;4.00;99.90;;;;;;5054043;28;20497;-74
2022/01/19 11:25:31;;;;;;;139.43;54.78;;;4.00;99.90;;;;;;5055602;28;20434;-72
2022/01/19 11:27:58;;;;;;;139.88;54.58;;;4.10;99.90;;;;;;5039168;28;20040;-73
2022/01/19 11:30:27;;;;;;;160.45;56.05;;;4.10;99.90;;;;;;5038528;28;20075;-72
2022/01/19 11:33:12;;;;;;;145.07;54.67;;;4.00;99.90;;;;;;5038719;28;20036;-72
2022/01/19 11:35:41;;;;;;;139.88;55.83;;;4.10;99.90;;;;;;5038524;28;20052;-72
2022/01/19 11:38:34;;;;;;;143.05;54.60;;;4.00;99.90;;;;;;5019300;28;20131;-73
2022/01/19 11:41:07;;;;;;;152.05;55.10;;;4.10;99.90;;;;;;5035519;28;20043;-75
2022/01/19 11:43:34;;;;;;;150.45;55.92;;;4.00;99.90;;;;;;5018582;28;20482;-73
2022/01/19 11:46:03;;;;;;;156.07;56.55;;;4.10;99.90;;;;;;5019447;28;20045;-73
2022/01/19 11:48:36;;;;;;;147.90;55.40;;;4.10;99.90;;;;;;5019193;28;20033;-73
2022/01/19 11:51:30;;;;;;;140.68;55.50;;;4.00;99.90;;;;;;5024343;28;20039;-73
2022/01/19 11:54:05;;;;;;;142.70;57.40;;;4.00;99.90;;;;;;5054625;28;20127;-74
2022/01/19 11:56:31;;;;;;;151.77;56.33;;;4.00;99.90;;;;;;5051783;28;20044;-75
2022/01/19 11:59:07;;;;;;;151.73;56.97;;;4.00;99.90;;;;;;5019508;28;20063;-76
2022/01/19 12:01:34;;;;;;;151.57;56.55;;;4.00;99.90;;;;;;5018950;28;20041;-74
2022/01/19 12:04:37;;;;;;;158.20;56.33;;;4.00;99.90;;;;;;5035077;28;20455;-74
2022/01/19 12:07:22;;;;;;;158.43;56.30;;;4.00;99.90;;;;;;4968163;28;20042;-73
2022/01/19 12:09:56;;;;;;;150.07;56.20;;;4.00;99.90;;;;;;5030853;28;20132;-74
2022/01/19 12:12:24;;;;;;;145.05;55.33;;;4.00;99.90;;;;;;5034245;28;20088;-75
2022/01/19 12:14:51;;;;;;;147.70;55.08;;;4.00;99.90;;;;;;5034115;28;20048;-74
2022/01/19 12:17:26;;;;;;;145.23;55.55;;;4.10;99.90;;;;;;5019259;28;20037;-74
2022/01/19 12:19:53;;;;;;;142.98;53.22;;;4.10;99.90;;;;;;5038080;28;20045;-74
2022/01/19 12:22:26;;;;;;;144.20;53.63;;;4.10;99.90;;;;;;5055349;28;20036;-73
2022/01/19 12:25:08;;;;;;;144.68;55.03;;;4.10;99.90;;;;;;5056951;28;20059;-72
2022/01/19 12:27:36;;;;;;;139.52;54.70;;;4.10;99.90;;;;;;5057864;28;20119;-74
2022/01/19 12:30:10;;;;;;;134.55;54.67;;;4.10;99.90;;;;;;5040885;28;20041;-72
2022/01/19 12:32:45;;;;;;;134.30;53.33;;;4.10;99.90;;;;;;5057899;28;20098;-71
2022/01/19 12:35:15;;;;;;;138.93;52.97;;;4.20;99.90;;;;;;5036851;28;20090;-73
2022/01/19 12:37:53;;;;;;;134.70;54.83;;;4.20;99.90;;;;;;5040383;28;20076;-72
2022/01/19 12:40:25;;;;;;;129.23;52.92;;;4.30;99.90;;;;;;5041047;28;20032;-74
2022/01/19 12:42:57;;;;;;;136.77;53.63;;;4.20;99.90;;;;;;5040947;28;20098;-74
2022/01/19 12:45:29;;;;;;;125.65;52.08;;;4.20;99.90;;;;;;5057153;28;20056;-73
2022/01/19 12:47:59;;;;;;;127.38;53.33;;;4.30;99.90;;;;;;5057626;28;20128;-73
2022/01/19 12:50:28;;;;;;;132.23;52.20;;;4.30;99.90;;;;;;5057115;28;20074;-72
2022/01/19 12:52:58;;;;;;;125.70;52.85;;;4.30;99.90;;;;;;5056471;28;20072;-71
2022/01/19 12:55:35;;;;;;;129.50;52.75;;;4.40;99.90;;;;;;5057589;28;20084;-72
2022/01/19 12:58:12;;;;;;;127.22;53.47;;;4.30;99.90;;;;;;5057414;28;20425;-72
2022/01/19 13:00:37;;;;;;;128.60;51.67;;;4.40;99.90;;;;;;5056786;28;20039;-72
2022/01/19 13:03:25;;;;;;;135.18;52.88;;;4.40;99.90;;;;;;5039272;28;20040;-72
2022/01/19 13:05:58;;;;;;;132.27;53.63;;;4.40;99.90;;;;;;5056430;28;20127;-72
2022/01/19 13:09:02;;;;;;;121.75;50.80;;;4.40;99.90;;;;;;5057288;28;20044;-73
2022/01/19 13:11:47;;;;;;;124.93;53.35;;;4.40;99.90;;;;;;5040328;28;20417;-74
2022/01/19 13:14:13;;;;;;;121.93;51.17;;;4.40;99.90;;;;;;5057119;28;20044;-73
2022/01/19 13:16:42;;;;;;;125.95;52.28;;;4.40;99.90;;;;;;5039489;28;20067;-73
2022/01/19 13:19:19;;;;;;;128.55;53.90;;;4.40;99.90;;;;;;5056583;28;20047;-72
2022/01/19 13:21:50;;;;;;;127.63;52.72;;;4.40;99.90;;;;;;5052846;28;20036;-72
2022/01/19 13:24:29;;;;;;;125.32;53.55;;;4.40;99.90;;;;;;5020102;28;20033;-74
2022/01/19 13:26:59;;;;;;;121.22;51.92;;;4.50;99.90;;;;;;5047471;28;20482;-73
2022/01/19 13:29:39;;;;;;;129.00;52.00;;;4.50;99.90;;;;;;5038418;28;20043;-73
2022/01/19 13:32:19;;;;;;;121.55;51.28;;;4.50;99.90;;;;;;5040015;28;20087;-73
2022/01/19 13:34:50;;;;;;;123.85;52.08;;;4.50;99.90;;;;;;5040129;28;20040;-72
2022/01/19 13:37:18;;;;;;;121.45;50.60;;;4.50;99.90;;;;;;5054798;28;20390;-72
2022/01/19 13:39:52;;;;;;;112.13;50.28;;;4.50;99.90;;;;;;5036235;28;20051;-72
2022/01/19 13:42:31;;;;;;;120.85;51.88;;;4.50;99.90;;;;;;5020036;28;20051;-73
2022/01/19 13:44:58;;;;;;;121.93;51.50;;;4.50;99.90;;;;;;5035956;28;20059;-72
2022/01/19 13:47:30;;;;;;;117.15;50.95;;;4.50;99.90;;;;;;5020230;28;20036;-74
2022/01/19 13:49:55;;;;;;;118.18;51.40;;;4.50;99.90;;;;;;5019971;28;20047;-72
2022/01/19 13:52:25;;;;;;;115.68;51.92;;;4.50;99.90;;;;;;5052469;28;20040;-72
2022/01/19 13:54:52;;;;;;;112.85;51.15;;;4.50;99.90;;;;;;5056039;28;20139;-72
2022/01/19 13:57:29;;;;;;;117.25;51.40;;;4.50;99.90;;;;;;5056403;28;20094;-72
2022/01/19 14:00:08;;;;;;;116.90;51.17;;;4.60;99.90;;;;;;5039710;28;20052;-72
2022/01/19 14:02:34;;;;;;;106.30;51.47;;;4.60;99.90;;;;;;5056194;28;20537;-74
2022/01/19 14:05:03;;;;;;;106.68;49.60;;;4.60;99.90;;;;;;5055044;28;20053;-75
2022/01/19 14:07:29;;;;;;;121.20;50.85;;;4.60;99.90;;;;;;5038175;28;20487;-75
2022/01/19 14:10:05;;;;;;;110.03;49.30;;;4.60;99.90;;;;;;5056009;28;20086;-74